sensor_id;sensor_type;location;lat;lon;timestamp;P1;durP1;ratioP1;P2;durP2;ratioP2
3309;SDS011;1667;53.238;10.394;2022-10-16T00:00:13;2.60;;;2.50;;
3309;SDS011;1667;53.238;10.394;2022-10-16T00:05:11;3.63;;;3.37;;
3309;SDS011;1667;53.238;10.394;2022-10-16T00:10:09;1.80;;;1.70;;
3309;SDS011;1667;53.238;10.394;2022-10-16T00:15:09;2.60;;;2.40;;
3309;SDS011;1667;53.238;10.394;2022-10-16T00:20:07;3.53;;;2.80;;
3309;SDS011;1667;53.238;10.394;2022-10-16T00:25:06;4.60;;;2.80;;
3309;SDS011;1667;53.238;10.394;2022-10-16T00:30:05;1.83;;;1.73;;
3309;SDS011;1667;53.238;10.394;2022-10-16T00:35:06;3.83;;;2.97;;
3309;SDS011;1667;53.238;10.394;2022-10-16T00:40:05;3.17;;;2.73;;
3309;SDS011;1667;53.238;10.394;2022-10-16T00:45:04;5.33;;;2.90;;
3309;SDS011;1667;53.238;10.394;2022-10-16T00:50:06;2.40;;;2.20;;
3309;SDS011;1667;53.238;10.394;2022-10-16T00:55:07;2.27;;;2.07;;
3309;SDS011;1667;53.238;10.394;2022-10-16T01:00:07;3.30;;;2.60;;
3309;SDS011;1667;53.238;10.394;2022-10-16T01:05:09;2.40;;;2.20;;
3309;SDS011;1667;53.238;10.394;2022-10-16T01:10:10;2.40;;;1.83;;
3309;SDS011;1667;53.238;10.394;2022-10-16T01:15:21;2.87;;;2.17;;
3309;SDS011;1667;53.238;10.394;2022-10-16T01:20:27;2.47;;;2.27;;
3309;SDS011;1667;53.238;10.394;2022-10-16T01:25:30;1.97;;;1.87;;
3309;SDS011;1667;53.238;10.394;2022-10-16T01:30:41;1.63;;;1.53;;
3309;SDS011;1667;53.238;10.394;2022-10-16T01:35:42;3.03;;;2.03;;
3309;SDS011;1667;53.238;10.394;2022-10-16T01:40:44;1.63;;;1.53;;
3309;SDS011;1667;53.238;10.394;2022-10-16T01:45:48;6.00;;;2.07;;
3309;SDS011;1667;53.238;10.394;2022-10-16T01:50:49;2.93;;;1.57;;
3309;SDS011;1667;53.238;10.394;2022-10-16T01:55:51;1.40;;;1.30;;
3309;SDS011;1667;53.238;10.394;2022-10-16T02:00:52;1.20;;;1.17;;
3309;SDS011;1667;53.238;10.394;2022-10-16T02:05:53;1.30;;;1.20;;
3309;SDS011;1667;53.238;10.394;2022-10-16T02:10:54;1.10;;;1.10;;
3309;SDS011;1667;53.238;10.394;2022-10-16T02:15:54;3.07;;;1.37;;
3309;SDS011;1667;53.238;10.394;2022-10-16T02:20:53;1.30;;;1.20;;
3309;SDS011;1667;53.238;10.394;2022-10-16T02:25:56;1.30;;;1.20;;
3309;SDS011;1667;53.238;10.394;2022-10-16T02:30:58;1.40;;;1.30;;
3309;SDS011;1667;53.238;10.394;2022-10-16T02:36:01;1.40;;;1.40;;
3309;SDS011;1667;53.238;10.394;2022-10-16T02:40:59;1.10;;;1.10;;
3309;SDS011;1667;53.238;10.394;2022-10-16T02:45:59;1.40;;;1.30;;
3309;SDS011;1667;53.238;10.394;2022-10-16T02:50:57;1.30;;;1.00;;
3309;SDS011;1667;53.238;10.394;2022-10-16T02:55:55;1.90;;;1.40;;
3309;SDS011;1667;53.238;10.394;2022-10-16T03:00:54;4.10;;;1.47;;
3309;SDS011;1667;53.238;10.394;2022-10-16T03:05:54;2.43;;;1.17;;
3309;SDS011;1667;53.238;10.394;2022-10-16T03:10:52;1.03;;;0.90;;
3309;SDS011;1667;53.238;10.394;2022-10-16T03:15:50;2.20;;;1.30;;
3309;SDS011;1667;53.238;10.394;2022-10-16T03:20:48;1.30;;;1.00;;
3309;SDS011;1667;53.238;10.394;2022-10-16T03:25:48;1.17;;;1.07;;
3309;SDS011;1667;53.238;10.394;2022-10-16T03:30:46;2.03;;;1.20;;
3309;SDS011;1667;53.238;10.394;2022-10-16T03:35:50;1.40;;;1.30;;
3309;SDS011;1667;53.238;10.394;2022-10-16T03:40:50;1.90;;;1.20;;
3309;SDS011;1667;53.238;10.394;2022-10-16T03:45:49;1.73;;;1.30;;
3309;SDS011;1667;53.238;10.394;2022-10-16T03:50:47;1.20;;;1.10;;
3309;SDS011;1667;53.238;10.394;2022-10-16T03:55:46;1.10;;;1.10;;
3309;SDS011;1667;53.238;10.394;2022-10-16T04:00:46;2.90;;;1.20;;
3309;SDS011;1667;53.238;10.394;2022-10-16T04:05:44;2.70;;;1.17;;
3309;SDS011;1667;53.238;10.394;2022-10-16T04:10:43;1.20;;;1.10;;
3309;SDS011;1667;53.238;10.394;2022-10-16T04:15:41;3.90;;;1.60;;
3309;SDS011;1667;53.238;10.394;2022-10-16T04:20:40;3.37;;;1.30;;
3309;SDS011;1667;53.238;10.394;2022-10-16T04:25:38;1.40;;;1.30;;
3309;SDS011;1667;53.238;10.394;2022-10-16T04:30:37;2.30;;;1.60;;
3309;SDS011;1667;53.238;10.394;2022-10-16T04:35:36;1.87;;;1.47;;
3309;SDS011;1667;53.238;10.394;2022-10-16T04:40:35;1.27;;;1.20;;
3309;SDS011;1667;53.238;10.394;2022-10-16T04:45:33;1.70;;;1.60;;
3309;SDS011;1667;53.238;10.394;2022-10-16T04:50:31;4.43;;;1.60;;
3309;SDS011;1667;53.238;10.394;2022-10-16T04:55:35;2.60;;;1.60;;
3309;SDS011;1667;53.238;10.394;2022-10-16T05:00:33;1.77;;;1.30;;
3309;SDS011;1667;53.238;10.394;2022-10-16T05:05:32;2.40;;;1.53;;
3309;SDS011;1667;53.238;10.394;2022-10-16T05:10:30;5.80;;;2.23;;
3309;SDS011;1667;53.238;10.394;2022-10-16T05:15:31;1.60;;;1.40;;
3309;SDS011;1667;53.238;10.394;2022-10-16T05:20:29;1.53;;;1.43;;
3309;SDS011;1667;53.238;10.394;2022-10-16T05:25:27;1.97;;;1.80;;
3309;SDS011;1667;53.238;10.394;2022-10-16T05:30:25;4.70;;;1.80;;
3309;SDS011;1667;53.238;10.394;2022-10-16T05:35:24;4.40;;;1.90;;
3309;SDS011;1667;53.238;10.394;2022-10-16T05:40:22;1.77;;;1.67;;
3309;SDS011;1667;53.238;10.394;2022-10-16T05:45:21;2.10;;;1.70;;
3309;SDS011;1667;53.238;10.394;2022-10-16T05:50:19;2.60;;;1.20;;
3309;SDS011;1667;53.238;10.394;2022-10-16T05:55:18;1.57;;;1.30;;
3309;SDS011;1667;53.238;10.394;2022-10-16T06:00:16;1.47;;;1.30;;
3309;SDS011;1667;53.238;10.394;2022-10-16T06:05:15;1.57;;;1.47;;
3309;SDS011;1667;53.238;10.394;2022-10-16T06:10:13;6.40;;;1.60;;
3309;SDS011;1667;53.238;10.394;2022-10-16T06:15:12;2.80;;;2.60;;
3309;SDS011;1667;53.238;10.394;2022-10-16T06:20:11;2.80;;;1.60;;
3309;SDS011;1667;53.238;10.394;2022-10-16T06:25:09;3.90;;;1.30;;
3309;SDS011;1667;53.238;10.394;2022-10-16T06:30:07;3.50;;;1.73;;
3309;SDS011;1667;53.238;10.394;2022-10-16T06:35:08;3.50;;;1.50;;
3309;SDS011;1667;53.238;10.394;2022-10-16T06:40:06;1.30;;;1.20;;
3309;SDS011;1667;53.238;10.394;2022-10-16T06:45:05;2.67;;;1.63;;
3309;SDS011;1667;53.238;10.394;2022-10-16T06:50:04;1.77;;;1.57;;
3309;SDS011;1667;53.238;10.394;2022-10-16T06:55:05;4.33;;;1.97;;
3309;SDS011;1667;53.238;10.394;2022-10-16T07:00:04;2.43;;;1.60;;
3309;SDS011;1667;53.238;10.394;2022-10-16T07:05:03;1.27;;;1.17;;
3309;SDS011;1667;53.238;10.394;2022-10-16T07:10:02;2.03;;;1.70;;
3309;SDS011;1667;53.238;10.394;2022-10-16T07:15:02;7.60;;;1.80;;
3309;SDS011;1667;53.238;10.394;2022-10-16T07:20:01;2.07;;;1.60;;
3309;SDS011;1667;53.238;10.394;2022-10-16T07:24:59;2.93;;;1.60;;
3309;SDS011;1667;53.238;10.394;2022-10-16T07:29:57;2.50;;;1.60;;
3309;SDS011;1667;53.238;10.394;2022-10-16T07:35:03;3.23;;;1.47;;
3309;SDS011;1667;53.238;10.394;2022-10-16T07:40:02;2.70;;;1.30;;
3309;SDS011;1667;53.238;10.394;2022-10-16T07:45:00;2.60;;;1.53;;
3309;SDS011;1667;53.238;10.394;2022-10-16T07:49:58;1.60;;;1.50;;
3309;SDS011;1667;53.238;10.394;2022-10-16T07:54:58;1.73;;;1.50;;
3309;SDS011;1667;53.238;10.394;2022-10-16T07:59:56;2.10;;;1.47;;
3309;SDS011;1667;53.238;10.394;2022-10-16T08:04:54;1.20;;;1.10;;
3309;SDS011;1667;53.238;10.394;2022-10-16T08:09:52;3.07;;;1.60;;
3309;SDS011;1667;53.238;10.394;2022-10-16T08:14:54;1.83;;;1.40;;
3309;SDS011;1667;53.238;10.394;2022-10-16T08:19:52;2.90;;;1.80;;
3309;SDS011;1667;53.238;10.394;2022-10-16T08:24:50;1.70;;;1.47;;
3309;SDS011;1667;53.238;10.394;2022-10-16T08:29:48;1.93;;;1.30;;
3309;SDS011;1667;53.238;10.394;2022-10-16T08:34:48;1.27;;;1.17;;
3309;SDS011;1667;53.238;10.394;2022-10-16T08:39:46;1.77;;;1.67;;
3309;SDS011;1667;53.238;10.394;2022-10-16T08:44:53;4.80;;;2.10;;
3309;SDS011;1667;53.238;10.394;2022-10-16T08:50:15;2.23;;;1.57;;
3309;SDS011;1667;53.238;10.394;2022-10-16T09:00:39;2.67;;;1.67;;
3309;SDS011;1667;53.238;10.394;2022-10-16T09:05:49;1.80;;;1.27;;
3309;SDS011;1667;53.238;10.394;2022-10-16T09:10:56;2.87;;;2.50;;
3309;SDS011;1667;53.238;10.394;2022-10-16T09:22:54;0.90;;;0.90;;
3309;SDS011;1667;53.238;10.394;2022-10-16T09:28:07;1.70;;;1.60;;
3309;SDS011;1667;53.238;10.394;2022-10-16T09:33:06;3.13;;;1.00;;
3309;SDS011;1667;53.238;10.394;2022-10-16T09:38:07;1.00;;;1.00;;
3309;SDS011;1667;53.238;10.394;2022-10-16T09:49:55;0.93;;;0.93;;
3309;SDS011;1667;53.238;10.394;2022-10-16T09:55:00;2.73;;;0.90;;
3309;SDS011;1667;53.238;10.394;2022-10-16T10:00:08;1.87;;;1.00;;
3309;SDS011;1667;53.238;10.394;2022-10-16T10:05:17;1.60;;;1.00;;
3309;SDS011;1667;53.238;10.394;2022-10-16T10:10:21;1.47;;;0.80;;
3309;SDS011;1667;53.238;10.394;2022-10-16T10:15:28;0.70;;;0.70;;
3309;SDS011;1667;53.238;10.394;2022-10-16T10:20:32;1.43;;;1.07;;
3309;SDS011;1667;53.238;10.394;2022-10-16T10:25:39;2.60;;;1.30;;
3309;SDS011;1667;53.238;10.394;2022-10-16T10:30:48;1.53;;;0.90;;
3309;SDS011;1667;53.238;10.394;2022-10-16T10:35:56;0.97;;;0.80;;
3309;SDS011;1667;53.238;10.394;2022-10-16T10:41:06;1.10;;;1.00;;
3309;SDS011;1667;53.238;10.394;2022-10-16T10:46:20;1.27;;;0.80;;
3309;SDS011;1667;53.238;10.394;2022-10-16T10:51:27;2.13;;;0.80;;
3309;SDS011;1667;53.238;10.394;2022-10-16T10:56:41;2.70;;;1.10;;
3309;SDS011;1667;53.238;10.394;2022-10-16T11:01:48;1.37;;;0.90;;
3309;SDS011;1667;53.238;10.394;2022-10-16T11:06:52;1.57;;;0.70;;
3309;SDS011;1667;53.238;10.394;2022-10-16T11:18:54;1.27;;;0.97;;
3309;SDS011;1667;53.238;10.394;2022-10-16T11:23:59;0.80;;;0.80;;
3309;SDS011;1667;53.238;10.394;2022-10-16T11:29:02;1.33;;;0.80;;
3309;SDS011;1667;53.238;10.394;2022-10-16T11:34:12;2.73;;;0.70;;
3309;SDS011;1667;53.238;10.394;2022-10-16T11:39:18;1.00;;;0.60;;
3309;SDS011;1667;53.238;10.394;2022-10-16T11:44:32;3.87;;;0.70;;
3309;SDS011;1667;53.238;10.394;2022-10-16T11:49:39;2.40;;;1.00;;
3309;SDS011;1667;53.238;10.394;2022-10-16T11:54:41;1.50;;;0.90;;
3309;SDS011;1667;53.238;10.394;2022-10-16T11:59:46;2.20;;;1.10;;
3309;SDS011;1667;53.238;10.394;2022-10-16T12:04:50;1.77;;;1.07;;
3309;SDS011;1667;53.238;10.394;2022-10-16T12:09:57;1.03;;;0.90;;
3309;SDS011;1667;53.238;10.394;2022-10-16T12:15:00;1.23;;;0.80;;
3309;SDS011;1667;53.238;10.394;2022-10-16T12:20:26;8.10;;;0.90;;
3309;SDS011;1667;53.238;10.394;2022-10-16T12:25:29;5.97;;;1.00;;
3309;SDS011;1667;53.238;10.394;2022-10-16T12:30:29;1.70;;;1.00;;
3309;SDS011;1667;53.238;10.394;2022-10-16T12:35:33;2.87;;;0.90;;
3309;SDS011;1667;53.238;10.394;2022-10-16T12:40:40;2.00;;;0.90;;
3309;SDS011;1667;53.238;10.394;2022-10-16T12:45:40;1.27;;;0.80;;
3309;SDS011;1667;53.238;10.394;2022-10-16T12:50:40;3.20;;;1.00;;
3309;SDS011;1667;53.238;10.394;2022-10-16T12:55:42;3.27;;;1.03;;
3309;SDS011;1667;53.238;10.394;2022-10-16T13:07:43;2.83;;;0.93;;
3309;SDS011;1667;53.238;10.394;2022-10-16T13:13:02;3.10;;;0.80;;
3309;SDS011;1667;53.238;10.394;2022-10-16T13:18:33;1.67;;;1.00;;
3309;SDS011;1667;53.238;10.394;2022-10-16T13:23:43;1.63;;;0.90;;
3309;SDS011;1667;53.238;10.394;2022-10-16T13:42:04;2.10;;;0.93;;
3309;SDS011;1667;53.238;10.394;2022-10-16T13:47:04;5.80;;;1.53;;
3309;SDS011;1667;53.238;10.394;2022-10-16T13:57:32;1.50;;;1.40;;
3309;SDS011;1667;53.238;10.394;2022-10-16T14:02:31;1.90;;;0.80;;
3309;SDS011;1667;53.238;10.394;2022-10-16T14:07:33;2.50;;;1.13;;
3309;SDS011;1667;53.238;10.394;2022-10-16T14:12:33;1.57;;;0.90;;
3309;SDS011;1667;53.238;10.394;2022-10-16T14:17:32;2.50;;;1.03;;
3309;SDS011;1667;53.238;10.394;2022-10-16T14:22:33;2.30;;;0.80;;
3309;SDS011;1667;53.238;10.394;2022-10-16T14:27:34;1.63;;;1.00;;
3309;SDS011;1667;53.238;10.394;2022-10-16T14:32:34;0.93;;;0.93;;
3309;SDS011;1667;53.238;10.394;2022-10-16T14:37:32;1.60;;;1.00;;
3309;SDS011;1667;53.238;10.394;2022-10-16T14:42:31;0.90;;;0.70;;
3309;SDS011;1667;53.238;10.394;2022-10-16T14:47:30;2.30;;;0.90;;
3309;SDS011;1667;53.238;10.394;2022-10-16T14:52:29;2.30;;;0.90;;
3309;SDS011;1667;53.238;10.394;2022-10-16T14:57:27;1.23;;;0.70;;
3309;SDS011;1667;53.238;10.394;2022-10-16T15:02:29;1.97;;;0.93;;
3309;SDS011;1667;53.238;10.394;2022-10-16T15:07:30;2.93;;;1.07;;
3309;SDS011;1667;53.238;10.394;2022-10-16T15:12:28;2.87;;;1.07;;
3309;SDS011;1667;53.238;10.394;2022-10-16T15:17:26;3.07;;;1.00;;
3309;SDS011;1667;53.238;10.394;2022-10-16T15:22:26;1.73;;;0.80;;
3309;SDS011;1667;53.238;10.394;2022-10-16T15:27:24;2.40;;;1.00;;
3309;SDS011;1667;53.238;10.394;2022-10-16T15:32:23;1.20;;;1.10;;
3309;SDS011;1667;53.238;10.394;2022-10-16T15:37:21;1.60;;;1.00;;
3309;SDS011;1667;53.238;10.394;2022-10-16T15:42:21;1.63;;;1.10;;
3309;SDS011;1667;53.238;10.394;2022-10-16T15:47:20;1.10;;;0.90;;
3309;SDS011;1667;53.238;10.394;2022-10-16T15:52:18;1.27;;;1.00;;
3309;SDS011;1667;53.238;10.394;2022-10-16T15:57:16;6.30;;;1.93;;
3309;SDS011;1667;53.238;10.394;2022-10-16T16:02:16;4.10;;;1.30;;
3309;SDS011;1667;53.238;10.394;2022-10-16T16:07:14;3.90;;;1.00;;
3309;SDS011;1667;53.238;10.394;2022-10-16T16:12:12;1.83;;;1.33;;
3309;SDS011;1667;53.238;10.394;2022-10-16T16:17:10;4.03;;;1.10;;
3309;SDS011;1667;53.238;10.394;2022-10-16T16:22:10;1.63;;;1.20;;
3309;SDS011;1667;53.238;10.394;2022-10-16T16:27:20;1.77;;;1.13;;
3309;SDS011;1667;53.238;10.394;2022-10-16T16:32:21;5.63;;;2.40;;
3309;SDS011;1667;53.238;10.394;2022-10-16T16:37:21;1.67;;;1.47;;
3309;SDS011;1667;53.238;10.394;2022-10-16T16:42:19;2.90;;;1.00;;
3309;SDS011;1667;53.238;10.394;2022-10-16T16:47:17;4.23;;;1.70;;
3309;SDS011;1667;53.238;10.394;2022-10-16T16:52:16;2.40;;;1.40;;
3309;SDS011;1667;53.238;10.394;2022-10-16T17:02:39;2.87;;;1.33;;
3309;SDS011;1667;53.238;10.394;2022-10-16T17:07:39;2.80;;;2.23;;
3309;SDS011;1667;53.238;10.394;2022-10-16T17:12:37;4.70;;;1.90;;
3309;SDS011;1667;53.238;10.394;2022-10-16T17:17:37;10.00;;;6.97;;
3309;SDS011;1667;53.238;10.394;2022-10-16T17:22:35;9.63;;;6.87;;
3309;SDS011;1667;53.238;10.394;2022-10-16T17:27:38;8.10;;;3.37;;
3309;SDS011;1667;53.238;10.394;2022-10-16T17:32:37;4.13;;;2.70;;
3309;SDS011;1667;53.238;10.394;2022-10-16T17:37:35;8.63;;;4.67;;
3309;SDS011;1667;53.238;10.394;2022-10-16T17:42:33;12.03;;;7.90;;
3309;SDS011;1667;53.238;10.394;2022-10-16T17:47:31;10.20;;;5.70;;
3309;SDS011;1667;53.238;10.394;2022-10-16T17:52:31;6.37;;;4.67;;
3309;SDS011;1667;53.238;10.394;2022-10-16T17:57:29;5.90;;;4.40;;
3309;SDS011;1667;53.238;10.394;2022-10-16T18:02:27;6.80;;;4.10;;
3309;SDS011;1667;53.238;10.394;2022-10-16T18:07:26;25.20;;;4.60;;
3309;SDS011;1667;53.238;10.394;2022-10-16T18:12:25;9.30;;;5.30;;
3309;SDS011;1667;53.238;10.394;2022-10-16T18:17:36;6.60;;;5.10;;
3309;SDS011;1667;53.238;10.394;2022-10-16T18:22:34;6.23;;;4.30;;
3309;SDS011;1667;53.238;10.394;2022-10-16T18:27:34;15.23;;;7.97;;
3309;SDS011;1667;53.238;10.394;2022-10-16T18:32:33;9.20;;;6.23;;
3309;SDS011;1667;53.238;10.394;2022-10-16T18:37:31;10.13;;;5.03;;
3309;SDS011;1667;53.238;10.394;2022-10-16T18:42:32;5.07;;;4.00;;
3309;SDS011;1667;53.238;10.394;2022-10-16T18:47:31;6.43;;;4.30;;
3309;SDS011;1667;53.238;10.394;2022-10-16T18:52:29;6.37;;;3.90;;
3309;SDS011;1667;53.238;10.394;2022-10-16T18:57:28;4.97;;;4.57;;
3309;SDS011;1667;53.238;10.394;2022-10-16T19:02:26;4.17;;;3.57;;
3309;SDS011;1667;53.238;10.394;2022-10-16T19:07:26;9.63;;;4.00;;
3309;SDS011;1667;53.238;10.394;2022-10-16T19:12:24;4.17;;;3.70;;
3309;SDS011;1667;53.238;10.394;2022-10-16T19:17:23;5.77;;;4.30;;
3309;SDS011;1667;53.238;10.394;2022-10-16T19:22:21;12.13;;;6.00;;
3309;SDS011;1667;53.238;10.394;2022-10-16T19:27:37;4.27;;;3.87;;
3309;SDS011;1667;53.238;10.394;2022-10-16T19:32:35;5.63;;;4.30;;
3309;SDS011;1667;53.238;10.394;2022-10-16T19:37:33;3.27;;;2.83;;
3309;SDS011;1667;53.238;10.394;2022-10-16T19:42:32;6.50;;;4.30;;
3309;SDS011;1667;53.238;10.394;2022-10-16T19:47:32;6.97;;;4.50;;
3309;SDS011;1667;53.238;10.394;2022-10-16T19:52:31;3.50;;;3.07;;
3309;SDS011;1667;53.238;10.394;2022-10-16T19:57:31;5.43;;;2.80;;
3309;SDS011;1667;53.238;10.394;2022-10-16T20:02:32;6.43;;;2.87;;
3309;SDS011;1667;53.238;10.394;2022-10-16T20:07:30;10.37;;;3.63;;
3309;SDS011;1667;53.238;10.394;2022-10-16T20:12:30;5.50;;;3.60;;
3309;SDS011;1667;53.238;10.394;2022-10-16T20:17:28;5.43;;;3.70;;
3309;SDS011;1667;53.238;10.394;2022-10-16T20:22:28;3.20;;;2.90;;
3309;SDS011;1667;53.238;10.394;2022-10-16T20:27:26;8.10;;;3.73;;
3309;SDS011;1667;53.238;10.394;2022-10-16T20:32:25;5.47;;;3.20;;
3309;SDS011;1667;53.238;10.394;2022-10-16T20:37:23;4.63;;;3.57;;
3309;SDS011;1667;53.238;10.394;2022-10-16T20:42:23;5.20;;;3.20;;
3309;SDS011;1667;53.238;10.394;2022-10-16T20:47:21;6.97;;;3.50;;
3309;SDS011;1667;53.238;10.394;2022-10-16T20:52:20;6.37;;;3.10;;
3309;SDS011;1667;53.238;10.394;2022-10-16T20:57:18;4.27;;;2.77;;
3309;SDS011;1667;53.238;10.394;2022-10-16T21:08:09;4.60;;;2.60;;
3309;SDS011;1667;53.238;10.394;2022-10-16T21:13:07;2.87;;;2.60;;
3309;SDS011;1667;53.238;10.394;2022-10-16T21:18:05;3.03;;;2.70;;
3309;SDS011;1667;53.238;10.394;2022-10-16T21:23:03;4.10;;;3.03;;
3309;SDS011;1667;53.238;10.394;2022-10-16T21:28:02;8.20;;;4.40;;
3309;SDS011;1667;53.238;10.394;2022-10-16T21:33:01;4.57;;;3.90;;
3309;SDS011;1667;53.238;10.394;2022-10-16T21:37:59;11.10;;;3.67;;
3309;SDS011;1667;53.238;10.394;2022-10-16T21:42:57;4.93;;;3.40;;
3309;SDS011;1667;53.238;10.394;2022-10-16T21:47:56;5.87;;;4.00;;
3309;SDS011;1667;53.238;10.394;2022-10-16T21:53:09;4.17;;;3.33;;
3309;SDS011;1667;53.238;10.394;2022-10-16T21:58:07;4.20;;;2.37;;
3309;SDS011;1667;53.238;10.394;2022-10-16T22:03:07;5.23;;;2.43;;
3309;SDS011;1667;53.238;10.394;2022-10-16T22:08:05;3.00;;;2.67;;
3309;SDS011;1667;53.238;10.394;2022-10-16T22:13:03;4.23;;;3.30;;
3309;SDS011;1667;53.238;10.394;2022-10-16T22:18:01;3.60;;;3.30;;
3309;SDS011;1667;53.238;10.394;2022-10-16T22:23:01;4.70;;;4.30;;
3309;SDS011;1667;53.238;10.394;2022-10-16T22:27:59;8.40;;;4.40;;
3309;SDS011;1667;53.238;10.394;2022-10-16T22:32:57;5.23;;;3.90;;
3309;SDS011;1667;53.238;10.394;2022-10-16T22:37:55;3.47;;;2.90;;
3309;SDS011;1667;53.238;10.394;2022-10-16T22:42:55;6.60;;;3.83;;
3309;SDS011;1667;53.238;10.394;2022-10-16T22:47:53;4.83;;;3.33;;
3309;SDS011;1667;53.238;10.394;2022-10-16T22:52:51;2.27;;;2.17;;
3309;SDS011;1667;53.238;10.394;2022-10-16T22:57:50;7.50;;;3.67;;
3309;SDS011;1667;53.238;10.394;2022-10-16T23:02:49;2.80;;;2.60;;
3309;SDS011;1667;53.238;10.394;2022-10-16T23:07:47;3.40;;;3.20;;
3309;SDS011;1667;53.238;10.394;2022-10-16T23:12:45;3.60;;;3.00;;
3309;SDS011;1667;53.238;10.394;2022-10-16T23:17:44;3.30;;;3.00;;
3309;SDS011;1667;53.238;10.394;2022-10-16T23:22:43;3.30;;;3.10;;
3309;SDS011;1667;53.238;10.394;2022-10-16T23:27:41;3.40;;;3.10;;
3309;SDS011;1667;53.238;10.394;2022-10-16T23:32:40;3.30;;;3.10;;
3309;SDS011;1667;53.238;10.394;2022-10-16T23:37:38;5.70;;;3.40;;
3309;SDS011;1667;53.238;10.394;2022-10-16T23:42:37;3.43;;;3.13;;
3309;SDS011;1667;53.238;10.394;2022-10-16T23:47:35;3.60;;;3.33;;
3309;SDS011;1667;53.238;10.394;2022-10-16T23:52:33;3.53;;;3.30;;
3309;SDS011;1667;53.238;10.394;2022-10-16T23:57:32;5.57;;;3.60;;
